sensor_id;sensor_type;location;lat;lon;timestamp;pressure;altitude;pressure_sealevel;temperature;humidity
21102;BME280;10709;49.006;12.100;2023-04-27T00:01:50;48605.00;;;-146.00;55.05
21102;BME280;10709;49.006;12.100;2023-04-27T00:04:17;48599.13;;;-146.00;55.16
21102;BME280;10709;49.006;12.100;2023-04-27T00:06:44;48612.84;;;-146.00;55.32
21102;BME280;10709;49.006;12.100;2023-04-27T00:09:11;48624.59;;;-146.00;55.56
21102;BME280;10709;49.006;12.100;2023-04-27T00:11:38;48599.13;;;-146.00;55.26
21102;BME280;10709;49.006;12.100;2023-04-27T00:14:04;48593.25;;;-146.00;55.93
21102;BME280;10709;49.006;12.100;2023-04-27T00:16:31;48620.66;;;-146.00;55.91
21102;BME280;10709;49.006;12.100;2023-04-27T00:18:58;48632.41;;;-146.00;55.61
21102;BME280;10709;49.006;12.100;2023-04-27T00:21:24;48616.75;;;-146.00;56.10
21102;BME280;10709;49.006;12.100;2023-04-27T00:23:50;48601.06;;;-146.00;56.02
21102;BME280;10709;49.006;12.100;2023-04-27T00:26:17;48610.88;;;-146.00;56.09
21102;BME280;10709;49.006;12.100;2023-04-27T00:28:43;48603.03;;;-146.00;56.26
21102;BME280;10709;49.006;12.100;2023-04-27T00:31:10;48628.50;;;-146.00;56.60
21102;BME280;10709;49.006;12.100;2023-04-27T00:33:37;48616.75;;;-146.00;56.86
21102;BME280;10709;49.006;12.100;2023-04-27T00:36:04;48620.66;;;-146.00;56.92
21102;BME280;10709;49.006;12.100;2023-04-27T00:38:30;48620.66;;;-146.00;56.90
21102;BME280;10709;49.006;12.100;2023-04-27T00:41:06;48597.16;;;-146.00;56.86
21102;BME280;10709;49.006;12.100;2023-04-27T00:43:43;48606.94;;;-146.00;57.23
21102;BME280;10709;49.006;12.100;2023-04-27T00:46:12;48608.91;;;-146.00;57.25
21102;BME280;10709;49.006;12.100;2023-04-27T00:48:39;48612.84;;;-146.00;57.39
21102;BME280;10709;49.006;12.100;2023-04-27T00:51:06;48620.66;;;-146.00;57.09
21102;BME280;10709;49.006;12.100;2023-04-27T00:53:33;48620.66;;;-146.00;57.04
21102;BME280;10709;49.006;12.100;2023-04-27T00:56:01;48620.66;;;-146.00;57.06
21102;BME280;10709;49.006;12.100;2023-04-27T00:58:28;48593.25;;;-146.00;57.42
21102;BME280;10709;49.006;12.100;2023-04-27T01:00:55;48601.06;;;-146.00;57.39
21102;BME280;10709;49.006;12.100;2023-04-27T01:03:22;48616.75;;;-146.00;57.49
21102;BME280;10709;49.006;12.100;2023-04-27T01:05:48;48618.72;;;-146.00;57.79
21102;BME280;10709;49.006;12.100;2023-04-27T01:08:15;48628.50;;;-146.00;57.60
21102;BME280;10709;49.006;12.100;2023-04-27T01:10:41;48591.28;;;-146.00;58.20
21102;BME280;10709;49.006;12.100;2023-04-27T01:13:08;48608.91;;;-146.00;58.41
21102;BME280;10709;49.006;12.100;2023-04-27T01:15:35;48589.31;;;-146.00;58.55
21102;BME280;10709;49.006;12.100;2023-04-27T01:18:01;48636.34;;;-146.00;58.72
21102;BME280;10709;49.006;12.100;2023-04-27T01:20:29;48605.00;;;-146.00;58.54
21102;BME280;10709;49.006;12.100;2023-04-27T01:22:57;48616.75;;;-146.00;58.77
21102;BME280;10709;49.006;12.100;2023-04-27T01:25:24;48612.84;;;-146.00;58.44
21102;BME280;10709;49.006;12.100;2023-04-27T01:27:50;48636.34;;;-146.00;58.58
21102;BME280;10709;49.006;12.100;2023-04-27T01:30:17;48605.00;;;-146.00;58.45
21102;BME280;10709;49.006;12.100;2023-04-27T01:32:44;48616.75;;;-146.00;58.39
21102;BME280;10709;49.006;12.100;2023-04-27T01:35:11;48640.25;;;-146.00;58.58
21102;BME280;10709;49.006;12.100;2023-04-27T01:37:37;48616.75;;;-146.00;58.67
21102;BME280;10709;49.006;12.100;2023-04-27T01:40:05;48608.91;;;-146.00;58.62
21102;BME280;10709;49.006;12.100;2023-04-27T01:42:32;48591.28;;;-146.00;59.22
21102;BME280;10709;49.006;12.100;2023-04-27T01:44:58;48601.06;;;-146.00;59.35
21102;BME280;10709;49.006;12.100;2023-04-27T01:47:26;48620.66;;;-146.00;59.64
21102;BME280;10709;49.006;12.100;2023-04-27T01:49:52;48593.25;;;-146.00;59.33
21102;BME280;10709;49.006;12.100;2023-04-27T01:52:19;48597.16;;;-146.00;59.90
21102;BME280;10709;49.006;12.100;2023-04-27T01:54:46;48632.41;;;-146.00;60.08
21102;BME280;10709;49.006;12.100;2023-04-27T01:57:12;48612.84;;;-146.00;59.62
21102;BME280;10709;49.006;12.100;2023-04-27T01:59:39;48591.28;;;-146.00;60.17
21102;BME280;10709;49.006;12.100;2023-04-27T02:02:06;48605.00;;;-146.00;59.54
21102;BME280;10709;49.006;12.100;2023-04-27T02:04:32;48601.06;;;-146.00;60.05
21102;BME280;10709;49.006;12.100;2023-04-27T02:07:02;48605.00;;;-146.00;60.17
21102;BME280;10709;49.006;12.100;2023-04-27T02:09:28;48620.66;;;-146.00;60.79
21102;BME280;10709;49.006;12.100;2023-04-27T02:11:55;48612.84;;;-146.00;60.88
21102;BME280;10709;49.006;12.100;2023-04-27T02:14:21;48616.75;;;-146.00;60.63
21102;BME280;10709;49.006;12.100;2023-04-27T02:16:48;48628.50;;;-146.00;61.12
21102;BME280;10709;49.006;12.100;2023-04-27T02:19:15;48601.06;;;-146.00;61.17
21102;BME280;10709;49.006;12.100;2023-04-27T02:21:42;48591.28;;;-146.00;61.41
21102;BME280;10709;49.006;12.100;2023-04-27T02:24:08;48601.06;;;-146.00;60.35
21102;BME280;10709;49.006;12.100;2023-04-27T02:26:36;48595.19;;;-146.00;60.35
21102;BME280;10709;49.006;12.100;2023-04-27T02:29:02;48573.66;;;-146.00;60.09
21102;BME280;10709;49.006;12.100;2023-04-27T02:31:30;48605.00;;;-146.00;59.51
21102;BME280;10709;49.006;12.100;2023-04-27T02:33:56;48597.16;;;-146.00;59.24
21102;BME280;10709;49.006;12.100;2023-04-27T02:36:23;48583.44;;;-146.00;58.98
21102;BME280;10709;49.006;12.100;2023-04-27T02:38:50;48589.31;;;-146.00;59.10
21102;BME280;10709;49.006;12.100;2023-04-27T02:41:16;48577.56;;;-146.00;59.02
21102;BME280;10709;49.006;12.100;2023-04-27T02:43:43;48601.06;;;-146.00;58.71
21102;BME280;10709;49.006;12.100;2023-04-27T02:46:09;48581.50;;;-146.00;58.48
21102;BME280;10709;49.006;12.100;2023-04-27T02:48:36;48608.91;;;-146.00;59.22
21102;BME280;10709;49.006;12.100;2023-04-27T02:51:03;48585.41;;;-146.00;59.84
21102;BME280;10709;49.006;12.100;2023-04-27T02:53:30;48577.56;;;-146.00;60.30
21102;BME280;10709;49.006;12.100;2023-04-27T02:55:57;48599.13;;;-146.00;60.46
21102;BME280;10709;49.006;12.100;2023-04-27T02:58:24;48601.06;;;-146.00;60.10
21102;BME280;10709;49.006;12.100;2023-04-27T03:00:55;48597.16;;;-146.00;60.11
21102;BME280;10709;49.006;12.100;2023-04-27T03:03:22;48595.19;;;-146.00;59.46
21102;BME280;10709;49.006;12.100;2023-04-27T03:05:49;48593.25;;;-146.00;59.90
21102;BME280;10709;49.006;12.100;2023-04-27T03:08:16;48585.41;;;-146.00;59.54
21102;BME280;10709;49.006;12.100;2023-04-27T03:10:42;48605.00;;;-146.00;60.55
21102;BME280;10709;49.006;12.100;2023-04-27T03:13:09;48601.06;;;-146.00;62.25
21102;BME280;10709;49.006;12.100;2023-04-27T03:15:36;48597.16;;;-146.00;62.21
21102;BME280;10709;49.006;12.100;2023-04-27T03:18:03;48579.53;;;-146.00;61.88
21102;BME280;10709;49.006;12.100;2023-04-27T03:20:30;48581.50;;;-146.00;62.28
21102;BME280;10709;49.006;12.100;2023-04-27T03:22:57;48612.84;;;-146.00;62.34
21102;BME280;10709;49.006;12.100;2023-04-27T03:25:24;48573.66;;;-146.00;63.82
21102;BME280;10709;49.006;12.100;2023-04-27T03:27:50;48595.19;;;-146.00;62.62
21102;BME280;10709;49.006;12.100;2023-04-27T03:30:16;48577.56;;;-146.00;63.30
21102;BME280;10709;49.006;12.100;2023-04-27T03:32:43;48585.41;;;-146.00;63.09
21102;BME280;10709;49.006;12.100;2023-04-27T03:35:12;48581.50;;;-146.00;62.99
21102;BME280;10709;49.006;12.100;2023-04-27T03:37:39;48567.78;;;-146.00;63.45
21102;BME280;10709;49.006;12.100;2023-04-27T03:40:06;48593.25;;;-146.00;62.97
21102;BME280;10709;49.006;12.100;2023-04-27T03:42:32;48597.16;;;-146.00;63.64
21102;BME280;10709;49.006;12.100;2023-04-27T03:44:59;48577.56;;;-146.00;63.16
21102;BME280;10709;49.006;12.100;2023-04-27T03:47:25;48601.06;;;-146.00;63.60
21102;BME280;10709;49.006;12.100;2023-04-27T03:49:52;48614.78;;;-146.00;63.03
21102;BME280;10709;49.006;12.100;2023-04-27T03:52:19;48608.91;;;-146.00;63.80
21102;BME280;10709;49.006;12.100;2023-04-27T03:54:46;48589.31;;;-146.00;63.84
21102;BME280;10709;49.006;12.100;2023-04-27T03:57:12;48606.94;;;-146.00;63.96
21102;BME280;10709;49.006;12.100;2023-04-27T03:59:39;48605.00;;;-146.00;63.74
21102;BME280;10709;49.006;12.100;2023-04-27T04:02:06;48589.31;;;-146.00;63.84
21102;BME280;10709;49.006;12.100;2023-04-27T04:04:33;48583.44;;;-146.00;63.36
21102;BME280;10709;49.006;12.100;2023-04-27T04:07:00;48595.19;;;-146.00;63.89
21102;BME280;10709;49.006;12.100;2023-04-27T04:09:27;48597.16;;;-146.00;64.14
21102;BME280;10709;49.006;12.100;2023-04-27T04:11:53;48616.75;;;-146.00;64.19
21102;BME280;10709;49.006;12.100;2023-04-27T04:14:20;48601.06;;;-146.00;64.24
21102;BME280;10709;49.006;12.100;2023-04-27T04:16:46;48585.41;;;-146.00;64.40
21102;BME280;10709;49.006;12.100;2023-04-27T04:19:12;48573.66;;;-146.00;64.50
21102;BME280;10709;49.006;12.100;2023-04-27T04:21:39;48601.06;;;-146.00;64.37
21102;BME280;10709;49.006;12.100;2023-04-27T04:24:06;48597.16;;;-146.00;64.20
21102;BME280;10709;49.006;12.100;2023-04-27T04:26:32;48573.66;;;-146.00;63.91
21102;BME280;10709;49.006;12.100;2023-04-27T04:28:59;48575.63;;;-146.00;64.01
21102;BME280;10709;49.006;12.100;2023-04-27T04:31:26;48589.31;;;-146.00;63.76
21102;BME280;10709;49.006;12.100;2023-04-27T04:33:52;48585.41;;;-146.00;63.63
21102;BME280;10709;49.006;12.100;2023-04-27T04:36:19;48601.06;;;-146.00;64.22
21102;BME280;10709;49.006;12.100;2023-04-27T04:38:45;48585.41;;;-146.00;63.65
21102;BME280;10709;49.006;12.100;2023-04-27T04:41:12;48605.00;;;-146.00;64.04
21102;BME280;10709;49.006;12.100;2023-04-27T04:43:39;48605.00;;;-146.00;63.82
21102;BME280;10709;49.006;12.100;2023-04-27T04:46:05;48589.31;;;-146.00;63.76
21102;BME280;10709;49.006;12.100;2023-04-27T04:48:32;48573.66;;;-146.00;64.17
21102;BME280;10709;49.006;12.100;2023-04-27T04:50:58;48569.72;;;-146.00;64.53
21102;BME280;10709;49.006;12.100;2023-04-27T04:53:25;48589.31;;;-146.00;64.87
21102;BME280;10709;49.006;12.100;2023-04-27T04:55:51;48599.13;;;-146.00;64.53
21102;BME280;10709;49.006;12.100;2023-04-27T04:58:18;48595.19;;;-146.00;64.55
21102;BME280;10709;49.006;12.100;2023-04-27T05:00:44;48577.56;;;-146.00;64.50
21102;BME280;10709;49.006;12.100;2023-04-27T05:03:11;48601.06;;;-146.00;64.58
21102;BME280;10709;49.006;12.100;2023-04-27T05:05:37;48585.41;;;-146.00;64.53
21102;BME280;10709;49.006;12.100;2023-04-27T05:08:04;48599.13;;;-146.00;64.08
21102;BME280;10709;49.006;12.100;2023-04-27T05:10:30;48593.25;;;-146.00;64.56
21102;BME280;10709;49.006;12.100;2023-04-27T05:12:56;48585.41;;;-146.00;64.20
21102;BME280;10709;49.006;12.100;2023-04-27T05:15:23;48577.56;;;-146.00;64.30
21102;BME280;10709;49.006;12.100;2023-04-27T05:17:50;48583.44;;;-146.00;64.10
21102;BME280;10709;49.006;12.100;2023-04-27T05:20:16;48587.38;;;-146.00;64.13
21102;BME280;10709;49.006;12.100;2023-04-27T05:22:43;48597.16;;;-146.00;64.21
21102;BME280;10709;49.006;12.100;2023-04-27T05:25:10;48585.41;;;-146.00;64.51
21102;BME280;10709;49.006;12.100;2023-04-27T05:27:36;48589.31;;;-146.00;64.27
21102;BME280;10709;49.006;12.100;2023-04-27T05:30:03;48612.84;;;-146.00;64.71
21102;BME280;10709;49.006;12.100;2023-04-27T05:32:29;48587.38;;;-146.00;64.60
21102;BME280;10709;49.006;12.100;2023-04-27T05:34:56;48601.06;;;-146.00;64.60
21102;BME280;10709;49.006;12.100;2023-04-27T05:37:22;48608.91;;;-146.00;64.18
21102;BME280;10709;49.006;12.100;2023-04-27T05:39:49;48597.16;;;-146.00;64.08
21102;BME280;10709;49.006;12.100;2023-04-27T05:42:15;48573.66;;;-146.00;63.75
21102;BME280;10709;49.006;12.100;2023-04-27T05:44:42;48601.06;;;-146.00;63.66
21102;BME280;10709;49.006;12.100;2023-04-27T05:47:09;48605.00;;;-146.00;63.58
21102;BME280;10709;49.006;12.100;2023-04-27T05:49:36;48597.16;;;-146.00;63.51
21102;BME280;10709;49.006;12.100;2023-04-27T05:52:02;48597.16;;;-146.00;63.80
21102;BME280;10709;49.006;12.100;2023-04-27T05:54:29;48581.50;;;-146.00;63.78
21102;BME280;10709;49.006;12.100;2023-04-27T05:56:56;48585.41;;;-146.00;64.08
21102;BME280;10709;49.006;12.100;2023-04-27T05:59:22;48573.66;;;-146.00;64.19
21102;BME280;10709;49.006;12.100;2023-04-27T06:01:49;48585.41;;;-146.00;63.89
21102;BME280;10709;49.006;12.100;2023-04-27T06:04:15;48589.31;;;-146.00;64.31
21102;BME280;10709;49.006;12.100;2023-04-27T06:06:42;48597.16;;;-146.00;64.19
21102;BME280;10709;49.006;12.100;2023-04-27T06:09:10;48608.91;;;-146.00;63.65
21102;BME280;10709;49.006;12.100;2023-04-27T06:11:37;48601.06;;;-146.00;63.54
21102;BME280;10709;49.006;12.100;2023-04-27T06:14:04;48593.25;;;-146.00;63.08
21102;BME280;10709;49.006;12.100;2023-04-27T06:16:30;48612.84;;;-146.00;63.01
21102;BME280;10709;49.006;12.100;2023-04-27T06:18:57;48593.25;;;-146.00;62.90
21102;BME280;10709;49.006;12.100;2023-04-27T06:21:23;48605.00;;;-146.00;62.78
21102;BME280;10709;49.006;12.100;2023-04-27T06:23:49;48605.00;;;-146.00;62.80
21102;BME280;10709;49.006;12.100;2023-04-27T06:26:16;48608.91;;;-146.00;62.61
21102;BME280;10709;49.006;12.100;2023-04-27T06:28:42;48597.16;;;-146.00;62.96
21102;BME280;10709;49.006;12.100;2023-04-27T06:31:09;48603.03;;;-146.00;61.96
21102;BME280;10709;49.006;12.100;2023-04-27T06:33:35;48589.31;;;-146.00;62.17
21102;BME280;10709;49.006;12.100;2023-04-27T06:36:02;48597.16;;;-146.00;61.19
21102;BME280;10709;49.006;12.100;2023-04-27T06:38:28;48577.56;;;-146.00;61.78
21102;BME280;10709;49.006;12.100;2023-04-27T06:40:54;48593.25;;;-146.00;61.94
21102;BME280;10709;49.006;12.100;2023-04-27T06:43:21;48583.44;;;-146.00;61.94
21102;BME280;10709;49.006;12.100;2023-04-27T06:45:48;48589.31;;;-146.00;62.95
21102;BME280;10709;49.006;12.100;2023-04-27T06:48:14;48601.06;;;-146.00;62.25
21102;BME280;10709;49.006;12.100;2023-04-27T06:50:42;48593.25;;;-146.00;61.56
21102;BME280;10709;49.006;12.100;2023-04-27T06:53:08;48606.94;;;-146.00;61.79
21102;BME280;10709;49.006;12.100;2023-04-27T06:55:35;48624.59;;;-146.00;62.17
21102;BME280;10709;49.006;12.100;2023-04-27T06:58:01;48597.16;;;-146.00;62.12
21102;BME280;10709;49.006;12.100;2023-04-27T07:00:29;48605.00;;;-146.00;61.22
21102;BME280;10709;49.006;12.100;2023-04-27T07:02:57;48577.56;;;-146.00;61.41
21102;BME280;10709;49.006;12.100;2023-04-27T07:05:23;48603.03;;;-146.00;61.10
21102;BME280;10709;49.006;12.100;2023-04-27T07:07:50;48595.19;;;-146.00;60.63
21102;BME280;10709;49.006;12.100;2023-04-27T07:10:17;48603.03;;;-146.00;60.78
21102;BME280;10709;49.006;12.100;2023-04-27T07:12:43;48616.75;;;-146.00;60.79
21102;BME280;10709;49.006;12.100;2023-04-27T07:15:10;48585.41;;;-146.00;60.52
21102;BME280;10709;49.006;12.100;2023-04-27T07:17:36;48606.94;;;-146.00;59.99
21102;BME280;10709;49.006;12.100;2023-04-27T07:20:04;48628.50;;;-146.00;59.21
21102;BME280;10709;49.006;12.100;2023-04-27T07:22:32;48636.34;;;-146.00;59.10
21102;BME280;10709;49.006;12.100;2023-04-27T07:24:58;48605.00;;;-146.00;57.84
21102;BME280;10709;49.006;12.100;2023-04-27T07:27:24;48612.84;;;-146.00;58.46
21102;BME280;10709;49.006;12.100;2023-04-27T07:29:51;48605.00;;;-146.00;58.42
21102;BME280;10709;49.006;12.100;2023-04-27T07:32:18;48612.84;;;-146.00;58.55
21102;BME280;10709;49.006;12.100;2023-04-27T07:34:45;48605.00;;;-146.00;57.68
21102;BME280;10709;49.006;12.100;2023-04-27T07:37:19;48603.03;;;-146.00;58.14
21102;BME280;10709;49.006;12.100;2023-04-27T07:39:47;48601.06;;;-146.00;57.69
21102;BME280;10709;49.006;12.100;2023-04-27T07:42:14;48597.16;;;-146.00;57.70
21102;BME280;10709;49.006;12.100;2023-04-27T07:44:41;48605.00;;;-146.00;57.15
21102;BME280;10709;49.006;12.100;2023-04-27T07:47:08;48603.03;;;-146.00;57.75
21102;BME280;10709;49.006;12.100;2023-04-27T07:49:35;48634.38;;;-146.00;57.05
21102;BME280;10709;49.006;12.100;2023-04-27T07:52:03;48610.88;;;-146.00;56.82
21102;BME280;10709;49.006;12.100;2023-04-27T07:54:30;48620.66;;;-146.00;57.64
21102;BME280;10709;49.006;12.100;2023-04-27T07:56:56;48605.00;;;-146.00;56.38
21102;BME280;10709;49.006;12.100;2023-04-27T07:59:23;48616.75;;;-146.00;57.79
21102;BME280;10709;49.006;12.100;2023-04-27T08:01:49;48636.34;;;-146.00;56.18
21102;BME280;10709;49.006;12.100;2023-04-27T08:04:16;48624.59;;;-146.00;56.30
21102;BME280;10709;49.006;12.100;2023-04-27T08:06:43;48655.94;;;-146.00;56.43
21102;BME280;10709;49.006;12.100;2023-04-27T08:09:12;48620.66;;;-146.00;56.29
21102;BME280;10709;49.006;12.100;2023-04-27T08:11:39;48640.25;;;-146.00;56.48
21102;BME280;10709;49.006;12.100;2023-04-27T08:14:06;48616.75;;;-146.00;56.39
21102;BME280;10709;49.006;12.100;2023-04-27T08:16:40;48608.91;;;-146.00;56.28
21102;BME280;10709;49.006;12.100;2023-04-27T08:19:08;48634.38;;;-146.00;56.77
21102;BME280;10709;49.006;12.100;2023-04-27T08:21:35;48626.53;;;-146.00;56.92
21102;BME280;10709;49.006;12.100;2023-04-27T08:24:03;48618.72;;;-146.00;56.65
21102;BME280;10709;49.006;12.100;2023-04-27T08:26:29;48636.34;;;-146.00;55.35
21102;BME280;10709;49.006;12.100;2023-04-27T08:28:56;48632.41;;;-146.00;55.61
21102;BME280;10709;49.006;12.100;2023-04-27T08:31:23;48628.50;;;-146.00;55.97
21102;BME280;10709;49.006;12.100;2023-04-27T08:33:50;48644.16;;;-146.00;56.36
21102;BME280;10709;49.006;12.100;2023-04-27T08:36:19;48605.00;;;-146.00;55.38
21102;BME280;10709;49.006;12.100;2023-04-27T08:38:46;48614.78;;;-146.00;55.86
21102;BME280;10709;49.006;12.100;2023-04-27T08:41:20;48648.09;;;-146.00;56.05
21102;BME280;10709;49.006;12.100;2023-04-27T08:43:50;48620.66;;;-146.00;54.97
21102;BME280;10709;49.006;12.100;2023-04-27T08:46:21;48620.66;;;-146.00;54.67
21102;BME280;10709;49.006;12.100;2023-04-27T08:48:49;48648.09;;;-146.00;53.65
21102;BME280;10709;49.006;12.100;2023-04-27T08:51:17;48650.06;;;-146.00;52.35
21102;BME280;10709;49.006;12.100;2023-04-27T08:53:47;48652.00;;;-146.00;53.12
21102;BME280;10709;49.006;12.100;2023-04-27T08:56:14;48648.09;;;-146.00;53.89
21102;BME280;10709;49.006;12.100;2023-04-27T08:58:41;48652.00;;;-146.00;53.68
21102;BME280;10709;49.006;12.100;2023-04-27T09:01:07;48636.34;;;-146.00;52.83
21102;BME280;10709;49.006;12.100;2023-04-27T09:03:34;48659.84;;;-146.00;52.35
21102;BME280;10709;49.006;12.100;2023-04-27T09:06:03;48652.00;;;-146.00;52.38
21102;BME280;10709;49.006;12.100;2023-04-27T09:08:49;48632.41;;;-146.00;52.07
21102;BME280;10709;49.006;12.100;2023-04-27T09:11:35;48652.00;;;-146.00;51.44
21102;BME280;10709;49.006;12.100;2023-04-27T09:14:18;48652.00;;;-146.00;50.33
21102;BME280;10709;49.006;12.100;2023-04-27T09:16:44;48663.75;;;-146.00;50.47
21102;BME280;10709;49.006;12.100;2023-04-27T09:19:22;48626.53;;;-146.00;51.40
21102;BME280;10709;49.006;12.100;2023-04-27T09:21:49;48636.34;;;-146.00;51.90
21102;BME280;10709;49.006;12.100;2023-04-27T09:24:16;48640.25;;;-146.00;50.50
21102;BME280;10709;49.006;12.100;2023-04-27T09:26:48;48634.38;;;-146.00;51.14
21102;BME280;10709;49.006;12.100;2023-04-27T09:29:15;48610.88;;;-146.00;51.28
21102;BME280;10709;49.006;12.100;2023-04-27T09:31:41;48671.59;;;-146.00;49.79
21102;BME280;10709;49.006;12.100;2023-04-27T09:34:07;48655.94;;;-146.00;49.89
21102;BME280;10709;49.006;12.100;2023-04-27T09:36:34;48652.00;;;-146.00;48.59
21102;BME280;10709;49.006;12.100;2023-04-27T09:39:02;48642.22;;;-146.00;47.71
21102;BME280;10709;49.006;12.100;2023-04-27T09:41:31;48650.06;;;-146.00;48.18
21102;BME280;10709;49.006;12.100;2023-04-27T09:43:58;48667.69;;;-146.00;47.64
21102;BME280;10709;49.006;12.100;2023-04-27T09:46:26;48655.94;;;-146.00;48.76
21102;BME280;10709;49.006;12.100;2023-04-27T09:48:55;48640.25;;;-146.00;47.92
21102;BME280;10709;49.006;12.100;2023-04-27T09:51:21;48642.22;;;-146.00;47.14
21102;BME280;10709;49.006;12.100;2023-04-27T09:53:53;48652.00;;;-146.00;45.42
21102;BME280;10709;49.006;12.100;2023-04-27T09:56:26;48640.25;;;-146.00;45.65
21102;BME280;10709;49.006;12.100;2023-04-27T10:01:59;48652.00;;;-146.00;47.96
21102;BME280;10709;49.006;12.100;2023-04-27T10:04:48;48663.75;;;-146.00;45.31
21102;BME280;10709;49.006;12.100;2023-04-27T10:07:19;48659.84;;;-146.00;45.63
21102;BME280;10709;49.006;12.100;2023-04-27T10:09:47;48636.34;;;-146.00;46.23
21102;BME280;10709;49.006;12.100;2023-04-27T10:12:21;48659.84;;;-146.00;44.08
21102;BME280;10709;49.006;12.100;2023-04-27T10:14:53;48679.44;;;-146.00;45.85
21102;BME280;10709;49.006;12.100;2023-04-27T10:17:31;48669.63;;;-146.00;44.91
21102;BME280;10709;49.006;12.100;2023-04-27T10:20:00;48644.16;;;-146.00;43.64
21102;BME280;10709;49.006;12.100;2023-04-27T10:22:40;48642.22;;;-146.00;45.09
21102;BME280;10709;49.006;12.100;2023-04-27T10:25:18;48655.94;;;-146.00;44.95
21102;BME280;10709;49.006;12.100;2023-04-27T10:30:18;48652.00;;;-146.00;45.31
21102;BME280;10709;49.006;12.100;2023-04-27T10:32:56;48632.41;;;-146.00;45.33
21102;BME280;10709;49.006;12.100;2023-04-27T10:35:41;48648.09;;;-146.00;44.43
21102;BME280;10709;49.006;12.100;2023-04-27T10:38:18;48659.84;;;-146.00;45.49
21102;BME280;10709;49.006;12.100;2023-04-27T10:40:58;48659.84;;;-146.00;44.99
21102;BME280;10709;49.006;12.100;2023-04-27T10:43:34;48667.69;;;-146.00;44.59
21102;BME280;10709;49.006;12.100;2023-04-27T10:46:13;48671.59;;;-146.00;44.24
21102;BME280;10709;49.006;12.100;2023-04-27T10:48:49;48665.72;;;-146.00;45.86
21102;BME280;10709;49.006;12.100;2023-04-27T10:51:16;48655.94;;;-146.00;44.81
21102;BME280;10709;49.006;12.100;2023-04-27T10:53:43;48652.00;;;-146.00;43.05
21102;BME280;10709;49.006;12.100;2023-04-27T10:56:09;48673.56;;;-146.00;42.92
21102;BME280;10709;49.006;12.100;2023-04-27T10:58:36;48669.63;;;-146.00;42.31
21102;BME280;10709;49.006;12.100;2023-04-27T11:01:06;48652.00;;;-146.00;42.29
21102;BME280;10709;49.006;12.100;2023-04-27T11:03:33;48683.34;;;-146.00;44.30
21102;BME280;10709;49.006;12.100;2023-04-27T11:06:03;48671.59;;;-146.00;44.42
21102;BME280;10709;49.006;12.100;2023-04-27T11:08:31;48655.94;;;-146.00;44.49
21102;BME280;10709;49.006;12.100;2023-04-27T11:11:01;48667.69;;;-146.00;44.66
21102;BME280;10709;49.006;12.100;2023-04-27T11:13:28;48683.34;;;-146.00;44.17
21102;BME280;10709;49.006;12.100;2023-04-27T11:15:58;48663.75;;;-146.00;42.99
21102;BME280;10709;49.006;12.100;2023-04-27T11:18:29;48673.56;;;-146.00;43.69
21102;BME280;10709;49.006;12.100;2023-04-27T11:21:09;48671.59;;;-146.00;42.08
21102;BME280;10709;49.006;12.100;2023-04-27T11:23:37;48663.75;;;-146.00;42.06
21102;BME280;10709;49.006;12.100;2023-04-27T11:26:20;48687.28;;;-146.00;41.99
21102;BME280;10709;49.006;12.100;2023-04-27T11:29:00;48659.84;;;-146.00;41.62
21102;BME280;10709;49.006;12.100;2023-04-27T11:31:36;48659.84;;;-146.00;43.24
21102;BME280;10709;49.006;12.100;2023-04-27T11:34:05;48667.69;;;-146.00;43.35
21102;BME280;10709;49.006;12.100;2023-04-27T11:36:33;48673.56;;;-146.00;43.58
21102;BME280;10709;49.006;12.100;2023-04-27T11:38:59;48652.00;;;-146.00;43.14
21102;BME280;10709;49.006;12.100;2023-04-27T11:41:33;48675.50;;;-146.00;43.21
21102;BME280;10709;49.006;12.100;2023-04-27T11:44:07;48673.56;;;-146.00;43.21
21102;BME280;10709;49.006;12.100;2023-04-27T11:46:37;48685.31;;;-146.00;43.06
21102;BME280;10709;49.006;12.100;2023-04-27T11:49:05;48675.50;;;-146.00;41.84
21102;BME280;10709;49.006;12.100;2023-04-27T11:51:34;48681.41;;;-146.00;42.79
21102;BME280;10709;49.006;12.100;2023-04-27T11:54:04;48675.50;;;-146.00;42.95
21102;BME280;10709;49.006;12.100;2023-04-27T11:56:40;48679.44;;;-146.00;42.88
21102;BME280;10709;49.006;12.100;2023-04-27T11:59:20;48661.81;;;-146.00;42.79
21102;BME280;10709;49.006;12.100;2023-04-27T12:01:46;48659.84;;;-146.00;43.24
21102;BME280;10709;49.006;12.100;2023-04-27T12:04:13;48661.81;;;-146.00;42.36
21102;BME280;10709;49.006;12.100;2023-04-27T12:06:40;48669.63;;;-146.00;42.38
21102;BME280;10709;49.006;12.100;2023-04-27T12:09:07;48663.75;;;-146.00;42.84
21102;BME280;10709;49.006;12.100;2023-04-27T12:11:34;48671.59;;;-146.00;41.01
21102;BME280;10709;49.006;12.100;2023-04-27T12:14:01;48657.88;;;-146.00;40.39
21102;BME280;10709;49.006;12.100;2023-04-27T12:16:27;48683.34;;;-146.00;41.12
21102;BME280;10709;49.006;12.100;2023-04-27T12:18:54;48663.75;;;-146.00;41.19
21102;BME280;10709;49.006;12.100;2023-04-27T12:21:20;48679.44;;;-146.00;42.16
21102;BME280;10709;49.006;12.100;2023-04-27T12:23:47;48683.34;;;-146.00;41.77
21102;BME280;10709;49.006;12.100;2023-04-27T12:26:13;48681.41;;;-146.00;41.52
21102;BME280;10709;49.006;12.100;2023-04-27T12:28:40;48657.88;;;-146.00;42.06
21102;BME280;10709;49.006;12.100;2023-04-27T12:31:07;48675.50;;;-146.00;41.95
21102;BME280;10709;49.006;12.100;2023-04-27T12:33:34;48683.34;;;-146.00;41.74
21102;BME280;10709;49.006;12.100;2023-04-27T12:36:00;48702.94;;;-146.00;41.15
21102;BME280;10709;49.006;12.100;2023-04-27T12:38:27;48667.69;;;-146.00;41.40
21102;BME280;10709;49.006;12.100;2023-04-27T12:40:54;48691.19;;;-146.00;41.34